Time;durP1;ratioP1;P1;durP2;ratioP2;P2;SDS_P1;SDS_P2;PMS_P1;PMS_P2;Temp;Humidity;BMP_temperature;BMP_pressure;BME280_temperature;BME280_humidity;BME280_pressure;Samples;Min_cycle;Max_cycle;Signal;HPM_P1;HPM_P2
2023/06/23 00:00:28;;;;;;;13.80;6.10;;;;;;;;;;5029478;28;99186;-72
2023/06/23 00:02:54;;;;;;;11.43;6.22;;;;;;;;;;5028610;28;100319;-72
2023/06/23 00:05:21;;;;;;;14.98;6.82;;;;;;;;;;5029430;28;98499;-72
2023/06/23 00:07:47;;;;;;;11.90;6.45;;;;;;;;;;5011783;28;99255;-72
2023/06/23 00:10:14;;;;;;;10.70;5.93;;;;;;;;;;5029043;28;99606;-72
2023/06/23 00:12:43;;;;;;;12.95;6.68;;;;;;;;;;5032637;28;98850;-72
2023/06/23 00:15:11;;;;;;;8.23;6.32;;;;;;;;;;5028800;28;99725;-72
2023/06/23 00:17:39;;;;;;;10.68;5.70;;;;;;;;;;5029361;28;98514;-72
2023/06/23 00:20:14;;;;;;;12.20;6.13;;;;;;;;;;5029717;28;99319;-72
2023/06/23 00:22:42;;;;;;;15.95;6.88;;;;;;;;;;5028891;28;99630;-72
2023/06/23 00:25:12;;;;;;;11.52;6.32;;;;;;;;;;5030649;27;98492;-71
2023/06/23 00:27:38;;;;;;;;;;;;;;;;;;5032670;28;100431;-71
2023/06/23 00:30:05;;;;;;;10.90;6.38;;;;;;;;;;5032891;27;130648;-72
2023/06/23 00:32:31;;;;;;;9.23;6.70;;;;;;;;;;5032956;28;98781;-72
2023/06/23 00:34:58;;;;;;;11.98;6.70;;;;;;;;;;5035490;27;98481;-71
2023/06/23 00:37:24;;;;;;;13.00;7.28;;;;;;;;;;5032459;28;98539;-71
2023/06/23 00:39:51;;;;;;;14.82;7.55;;;;;;;;;;5032152;28;100338;-71
2023/06/23 00:42:17;;;;;;;15.85;7.68;;;;;;;;;;5032107;28;99680;-71
2023/06/23 00:44:44;;;;;;;8.75;7.22;;;;;;;;;;5032346;28;97804;-71
2023/06/23 00:47:10;;;;;;;14.50;7.75;;;;;;;;;;5032639;28;99504;-71
2023/06/23 00:49:36;;;;;;;16.10;9.02;;;;;;;;;;5031692;28;98774;-71
2023/06/23 00:52:03;;;;;;;13.35;8.48;;;;;;;;;;5031653;28;99226;-71
2023/06/23 00:54:34;;;;;;;12.57;8.30;;;;;;;;;;5031910;27;100142;-71
2023/06/23 00:57:00;;;;;;;13.30;9.23;;;;;;;;;;5035711;28;102063;-71
2023/06/23 00:59:28;;;;;;;14.90;9.18;;;;;;;;;;5031855;28;99306;-71
2023/06/23 01:01:57;;;;;;;15.70;9.93;;;;;;;;;;5032135;28;100916;-72
2023/06/23 01:04:24;;;;;;;16.15;10.65;;;;;;;;;;5031999;27;98633;-72
2023/06/23 01:07:09;;;;;;;17.45;10.65;;;;;;;;;;5031115;28;99630;-72
2023/06/23 01:09:44;;;;;;;17.20;11.45;;;;;;;;;;5031207;28;99439;-72
2023/06/23 01:12:17;;;;;;;18.95;11.63;;;;;;;;;;5031091;28;98523;-72
2023/06/23 01:15:04;;;;;;;14.48;10.90;;;;;;;;;;5030922;28;99267;-72
2023/06/23 01:17:39;;;;;;;18.00;11.50;;;;;;;;;;5019181;28;100356;-72
2023/06/23 01:20:21;;;;;;;21.58;12.52;;;;;;;;;;5034135;28;98519;-72
2023/06/23 01:23:00;;;;;;;23.10;13.93;;;;;;;;;;5030728;28;99539;-72
2023/06/23 01:25:29;;;;;;;21.08;13.95;;;;;;;;;;5030591;28;99256;-72
2023/06/23 01:28:04;;;;;;;21.40;15.30;;;;;;;;;;5030647;28;100473;-72
2023/06/23 01:30:32;;;;;;;28.90;18.90;;;;;;;;;;5030199;27;98742;-72
2023/06/23 01:33:04;;;;;;;32.72;21.33;;;;;;;;;;5031207;28;98577;-72
2023/06/23 01:35:33;;;;;;;34.30;23.15;;;;;;;;;;5031555;27;98936;-72
2023/06/23 01:38:10;;;;;;;43.85;27.27;;;;;;;;;;5029670;28;99501;-72
2023/06/23 01:40:39;;;;;;;52.85;33.60;;;;;;;;;;5030552;28;98850;-71
2023/06/23 01:43:07;;;;;;;58.30;35.55;;;;;;;;;;5031894;28;99343;-72
2023/06/23 01:45:34;;;;;;;59.58;35.90;;;;;;;;;;5030213;28;98892;-72
2023/06/23 01:48:03;;;;;;;67.55;40.53;;;;;;;;;;5030235;27;99192;-72
2023/06/23 01:50:31;;;;;;;70.47;41.28;;;;;;;;;;5030394;28;100657;-72
2023/06/23 01:52:57;;;;;;;74.25;40.78;;;;;;;;;;5030481;28;98569;-72
2023/06/23 01:55:24;;;;;;;70.18;39.97;;;;;;;;;;5030408;28;99469;-72
2023/06/23 01:57:51;;;;;;;69.18;39.38;;;;;;;;;;5029712;28;99576;-72
2023/06/23 02:00:21;;;;;;;62.30;35.90;;;;;;;;;;5030770;28;97869;-72
2023/06/23 02:02:49;;;;;;;60.75;33.58;;;;;;;;;;5033583;28;98624;-72
2023/06/23 02:05:17;;;;;;;56.67;33.53;;;;;;;;;;5029882;28;98549;-72
2023/06/23 02:07:45;;;;;;;52.05;32.20;;;;;;;;;;5029843;28;99572;-72
2023/06/23 02:10:11;;;;;;;52.08;30.02;;;;;;;;;;5029606;27;99873;-72
2023/06/23 02:12:39;;;;;;;44.90;28.05;;;;;;;;;;5030256;27;98551;-72
2023/06/23 02:15:08;;;;;;;46.75;28.58;;;;;;;;;;5029892;27;99299;-72
2023/06/23 02:17:34;;;;;;;38.67;25.75;;;;;;;;;;5029700;28;99699;-72
2023/06/23 02:20:10;;;;;;;43.45;26.83;;;;;;;;;;5029708;28;98614;-72
2023/06/23 02:22:37;;;;;;;41.13;25.70;;;;;;;;;;5029953;28;99123;-72
2023/06/23 02:25:04;;;;;;;38.22;25.38;;;;;;;;;;5033755;28;99755;-72
2023/06/23 02:27:30;;;;;;;38.35;22.63;;;;;;;;;;5029455;28;98700;-72
2023/06/23 02:29:58;;;;;;;37.47;25.10;;;;;;;;;;5029316;28;99623;-72
2023/06/23 02:32:25;;;;;;;41.20;25.00;;;;;;;;;;5029271;28;99269;-72
2023/06/23 02:34:52;;;;;;;38.72;23.17;;;;;;;;;;5029523;28;99977;-72
2023/06/23 02:37:21;;;;;;;34.05;23.17;;;;;;;;;;5029494;28;99736;-72
2023/06/23 02:39:51;;;;;;;39.03;22.38;;;;;;;;;;5029553;28;98555;-72
2023/06/23 02:42:20;;;;;;;34.70;22.33;;;;;;;;;;5029974;28;99249;-71
2023/06/23 02:44:53;;;;;;;40.78;23.25;;;;;;;;;;5029342;28;100506;-71
2023/06/23 02:47:22;;;;;;;39.92;23.05;;;;;;;;;;5032720;28;98508;-72
2023/06/23 02:49:51;;;;;;;35.72;23.13;;;;;;;;;;5030303;28;99144;-72
2023/06/23 02:52:18;;;;;;;38.60;23.70;;;;;;;;;;5029792;28;98497;-71
2023/06/23 02:54:47;;;;;;;35.63;22.27;;;;;;;;;;5029409;28;99326;-72
2023/06/23 02:57:15;;;;;;;33.83;22.27;;;;;;;;;;5010727;28;100471;-71
2023/06/23 02:59:44;;;;;;;36.47;22.23;;;;;;;;;;5029804;28;99298;-72
2023/06/23 03:02:13;;;;;;;39.88;21.27;;;;;;;;;;5011784;28;99338;-72
2023/06/23 03:04:41;;;;;;;33.10;20.88;;;;;;;;;;5029395;28;100539;-71
2023/06/23 03:07:10;;;;;;;33.15;20.08;;;;;;;;;;5029473;28;98549;-71
2023/06/23 03:09:37;;;;;;;34.05;20.60;;;;;;;;;;5031944;28;99743;-71
2023/06/23 03:12:04;;;;;;;33.33;21.73;;;;;;;;;;5028870;28;98704;-72
2023/06/23 03:14:30;;;;;;;32.97;20.30;;;;;;;;;;5029593;28;99397;-71
2023/06/23 03:17:00;;;;;;;32.47;20.83;;;;;;;;;;5028506;28;100153;-71
2023/06/23 03:19:26;;;;;;;31.47;21.23;;;;;;;;;;5029063;28;98885;-71
2023/06/23 03:22:04;;;;;;;37.63;21.60;;;;;;;;;;5029091;28;100249;-72
2023/06/23 03:24:31;;;;;;;37.30;21.83;;;;;;;;;;5028233;28;99507;-72
2023/06/23 03:27:01;;;;;;;33.50;21.35;;;;;;;;;;5028817;28;98526;-71
2023/06/23 03:29:29;;;;;;;38.43;21.77;;;;;;;;;;5029108;28;99401;-72
2023/06/23 03:31:58;;;;;;;34.83;20.80;;;;;;;;;;5031490;28;99578;-71
2023/06/23 03:34:27;;;;;;;33.75;22.38;;;;;;;;;;5028862;28;99301;-71
2023/06/23 03:36:56;;;;;;;34.63;20.77;;;;;;;;;;5028473;28;100484;-72
2023/06/23 03:39:24;;;;;;;29.63;20.23;;;;;;;;;;5029391;28;97768;-71
2023/06/23 03:41:51;;;;;;;35.72;21.23;;;;;;;;;;5028905;28;99534;-71
2023/06/23 03:44:30;;;;;;;31.40;21.13;;;;;;;;;;5028287;28;99814;-72
2023/06/23 03:47:03;;;;;;;32.75;20.77;;;;;;;;;;5027891;28;99199;-71
2023/06/23 03:49:39;;;;;;;36.13;20.10;;;;;;;;;;5028443;28;100372;-71
2023/06/23 03:52:07;;;;;;;29.77;20.05;;;;;;;;;;5010489;28;99979;-72
2023/06/23 03:54:34;;;;;;;36.67;21.73;;;;;;;;;;5031912;28;98606;-71
2023/06/23 03:57:02;;;;;;;36.15;22.40;;;;;;;;;;5010584;28;99536;-72
2023/06/23 03:59:28;;;;;;;35.55;21.65;;;;;;;;;;5011268;28;98542;-71
2023/06/23 04:01:56;;;;;;;35.55;21.95;;;;;;;;;;5014055;28;100309;-72
2023/06/23 04:04:23;;;;;;;40.75;22.98;;;;;;;;;;5032564;27;99800;-72
2023/06/23 04:06:51;;;;;;;34.88;22.08;;;;;;;;;;5031960;28;98801;-72
2023/06/23 04:09:19;;;;;;;40.58;22.75;;;;;;;;;;5032038;28;99430;-71
2023/06/23 04:11:47;;;;;;;39.42;23.33;;;;;;;;;;5030956;28;100544;-72
2023/06/23 04:14:14;;;;;;;43.88;24.08;;;;;;;;;;5035116;28;98787;-71
2023/06/23 04:16:41;;;;;;;42.25;25.58;;;;;;;;;;5031120;28;99685;-72
2023/06/23 04:19:09;;;;;;;45.00;23.52;;;;;;;;;;5032218;28;98528;-72
2023/06/23 04:21:38;;;;;;;;;;;;;;;;;;5032096;28;99328;-72
2023/06/23 04:24:06;;;;;;;42.28;24.63;;;;;;;;;;5033098;27;128478;-72
2023/06/23 04:26:34;;;;;;;53.38;26.67;;;;;;;;;;5031873;28;98536;-72
2023/06/23 04:29:03;;;;;;;51.03;27.00;;;;;;;;;;5031465;28;99282;-73
2023/06/23 04:31:30;;;;;;;50.03;28.35;;;;;;;;;;5031558;28;100618;-72
2023/06/23 04:33:56;;;;;;;48.45;28.55;;;;;;;;;;5031236;28;98499;-72
2023/06/23 04:36:24;;;;;;;51.40;31.13;;;;;;;;;;5034384;28;100299;-72
2023/06/23 04:38:54;;;;;;;51.85;30.73;;;;;;;;;;5031951;28;98487;-72
2023/06/23 04:41:23;;;;;;;57.53;31.52;;;;;;;;;;5031316;27;99908;-72
2023/06/23 04:43:51;;;;;;;56.00;31.52;;;;;;;;;;5031107;27;99532;-72
2023/06/23 04:46:29;;;;;;;59.28;33.22;;;;;;;;;;5031468;28;98508;-72
2023/06/23 04:48:58;;;;;;;60.63;32.17;;;;;;;;;;5031633;28;100310;-72
2023/06/23 04:51:27;;;;;;;62.80;34.42;;;;;;;;;;5030882;27;99703;-72
2023/06/23 04:53:57;;;;;;;64.63;34.70;;;;;;;;;;5031732;28;97914;-72
2023/06/23 04:56:25;;;;;;;66.28;32.38;;;;;;;;;;5031176;28;98897;-72
2023/06/23 04:58:56;;;;;;;67.20;34.33;;;;;;;;;;5034483;28;100573;-72
2023/06/23 05:01:23;;;;;;;75.10;34.88;;;;;;;;;;5030543;28;99419;-72
2023/06/23 05:03:51;;;;;;;73.07;35.00;;;;;;;;;;5030892;28;99653;-72
2023/06/23 05:06:18;;;;;;;77.45;37.20;;;;;;;;;;5031036;28;98628;-72
2023/06/23 05:08:46;;;;;;;81.03;36.40;;;;;;;;;;5030505;28;99426;-72
2023/06/23 05:11:14;;;;;;;79.85;36.30;;;;;;;;;;5030216;27;99555;-72
2023/06/23 05:13:41;;;;;;;78.18;36.25;;;;;;;;;;5030804;28;98725;-72
2023/06/23 05:16:10;;;;;;;69.10;33.95;;;;;;;;;;5031106;27;99402;-72
2023/06/23 05:18:38;;;;;;;71.80;34.10;;;;;;;;;;5031419;28;99939;-72
2023/06/23 05:21:05;;;;;;;76.07;35.75;;;;;;;;;;5033861;27;98693;-72
2023/06/23 05:23:39;;;;;;;72.63;35.75;;;;;;;;;;5030354;28;99482;-72
2023/06/23 05:26:10;;;;;;;75.35;35.55;;;;;;;;;;5028925;28;99561;-71
2023/06/23 05:28:37;;;;;;;76.07;33.92;;;;;;;;;;5030455;28;100432;-72
2023/06/23 05:31:05;;;;;;;80.35;36.72;;;;;;;;;;5030284;27;99747;-72
2023/06/23 05:33:33;;;;;;;72.28;33.85;;;;;;;;;;5030549;28;98487;-72
2023/06/23 05:36:00;;;;;;;69.15;32.88;;;;;;;;;;5030553;27;99428;-72
2023/06/23 05:38:28;;;;;;;64.05;33.90;;;;;;;;;;5030475;28;100689;-71
2023/06/23 05:40:54;;;;;;;60.35;31.38;;;;;;;;;;5030402;28;98514;-71
2023/06/23 05:43:21;;;;;;;62.03;32.30;;;;;;;;;;5034157;28;100459;-73
2023/06/23 05:45:48;;;;;;;60.17;31.70;;;;;;;;;;5030642;28;98851;-71
2023/06/23 05:48:17;;;;;;;59.60;31.77;;;;;;;;;;5012328;27;99615;-71
2023/06/23 05:50:46;;;;;;;61.47;32.85;;;;;;;;;;5029917;28;101851;-73
2023/06/23 05:53:15;;;;;;;57.88;30.83;;;;;;;;;;5030424;28;98588;-71
2023/06/23 05:55:43;;;;;;;58.17;30.38;;;;;;;;;;5030418;27;99402;-71
2023/06/23 05:58:10;;;;;;;62.45;33.15;;;;;;;;;;5030378;28;100690;-72
2023/06/23 06:00:40;;;;;;;60.35;30.75;;;;;;;;;;5029968;27;98825;-71
2023/06/23 06:03:09;;;;;;;55.42;31.20;;;;;;;;;;5032963;28;99386;-71
2023/06/23 06:05:38;;;;;;;59.67;31.23;;;;;;;;;;5030047;28;98553;-71
2023/06/23 06:08:05;;;;;;;59.00;29.00;;;;;;;;;;5030281;27;99881;-70
2023/06/23 06:10:32;;;;;;;51.88;28.77;;;;;;;;;;5029623;28;99579;-70
2023/06/23 06:13:00;;;;;;;56.53;28.88;;;;;;;;;;5029985;27;98523;-70
2023/06/23 06:15:26;;;;;;;51.38;27.83;;;;;;;;;;5029029;28;99386;-70
2023/06/23 06:17:53;;;;;;;49.42;27.98;;;;;;;;;;5029878;28;100678;-71
2023/06/23 06:20:21;;;;;;;48.70;27.20;;;;;;;;;;5029958;27;98515;-70
2023/06/23 06:22:50;;;;;;;48.22;26.92;;;;;;;;;;5029078;27;99400;-70
2023/06/23 06:25:21;;;;;;;44.35;24.65;;;;;;;;;;5032810;28;99660;-71
2023/06/23 06:27:48;;;;;;;42.65;25.20;;;;;;;;;;5029900;28;99759;-71
2023/06/23 06:30:17;;;;;;;38.60;24.15;;;;;;;;;;5029436;28;100064;-71
2023/06/23 06:32:43;;;;;;;48.70;25.17;;;;;;;;;;5030057;28;97834;-71
2023/06/23 06:35:11;;;;;;;42.05;24.55;;;;;;;;;;5029574;28;98608;-71
2023/06/23 06:37:38;;;;;;;42.55;24.80;;;;;;;;;;5029389;28;100645;-71
2023/06/23 06:40:06;;;;;;;35.85;22.23;;;;;;;;;;5029188;28;99553;-71
2023/06/23 06:42:33;;;;;;;35.28;22.35;;;;;;;;;;5029755;28;101218;-71
2023/06/23 06:44:59;;;;;;;36.60;23.08;;;;;;;;;;5029132;28;99762;-71
2023/06/23 06:47:27;;;;;;;39.88;23.10;;;;;;;;;;5033164;28;98482;-71
2023/06/23 06:49:53;;;;;;;42.35;21.80;;;;;;;;;;5029210;28;99824;-71
2023/06/23 06:52:20;;;;;;;37.58;22.08;;;;;;;;;;5029690;28;98818;-71
2023/06/23 06:54:51;;;;;;;33.83;21.25;;;;;;;;;;5029032;28;99286;-71
2023/06/23 06:57:18;;;;;;;32.28;20.77;;;;;;;;;;5029493;28;98873;-71
2023/06/23 06:59:45;;;;;;;34.40;20.42;;;;;;;;;;5029513;27;98625;-71
2023/06/23 07:02:12;;;;;;;38.35;19.50;;;;;;;;;;5029052;28;99247;-71
2023/06/23 07:04:39;;;;;;;37.50;18.55;;;;;;;;;;5028483;28;100243;-71
2023/06/23 07:07:05;;;;;;;28.80;17.05;;;;;;;;;;5029400;28;98516;-71
2023/06/23 07:09:32;;;;;;;25.83;15.65;;;;;;;;;;5032034;28;99343;-71
2023/06/23 07:12:01;;;;;;;32.15;18.30;;;;;;;;;;5029573;28;98495;-71
2023/06/23 07:14:27;;;;;;;28.33;16.67;;;;;;;;;;5029073;28;99365;-71
2023/06/23 07:16:54;;;;;;;27.77;17.83;;;;;;;;;;5028910;28;99594;-72
2023/06/23 07:19:20;;;;;;;26.42;17.20;;;;;;;;;;5028790;28;98550;-72
2023/06/23 07:21:47;;;;;;;23.58;14.68;;;;;;;;;;5029565;28;99273;-71
2023/06/23 07:24:13;;;;;;;18.00;12.45;;;;;;;;;;5028445;27;99856;-71
2023/06/23 07:26:40;;;;;;;23.35;13.23;;;;;;;;;;5029369;28;98495;-71
2023/06/23 07:29:06;;;;;;;20.40;12.13;;;;;;;;;;5028140;28;99850;-71
2023/06/23 07:31:37;;;;;;;22.00;12.60;;;;;;;;;;5031959;28;99481;-71
2023/06/23 07:34:04;;;;;;;17.80;12.52;;;;;;;;;;5029337;27;99086;-71
2023/06/23 07:36:30;;;;;;;18.02;11.88;;;;;;;;;;5031766;28;99765;-71
2023/06/23 07:38:57;;;;;;;17.30;12.02;;;;;;;;;;5014605;28;98568;-71
2023/06/23 07:41:23;;;;;;;17.60;12.02;;;;;;;;;;5032424;27;99655;-71
2023/06/23 07:43:49;;;;;;;14.10;11.30;;;;;;;;;;5032338;28;101042;-71
2023/06/23 07:46:16;;;;;;;16.88;10.50;;;;;;;;;;5032548;27;97780;-71
2023/06/23 07:48:43;;;;;;;13.38;7.22;;;;;;;;;;5032269;28;98509;-71
2023/06/23 07:51:09;;;;;;;15.80;7.72;;;;;;;;;;5032677;28;99813;-71
2023/06/23 07:53:36;;;;;;;9.50;7.47;;;;;;;;;;5035722;28;99311;-71
2023/06/23 07:56:03;;;;;;;11.02;8.10;;;;;;;;;;5032435;28;99596;-71
2023/06/23 07:58:29;;;;;;;10.95;7.93;;;;;;;;;;5033388;27;98958;-71
2023/06/23 08:00:55;;;;;;;10.18;6.05;;;;;;;;;;5032662;27;99232;-71
2023/06/23 08:03:22;;;;;;;10.95;6.13;;;;;;;;;;5032174;27;98997;-71
2023/06/23 08:05:48;;;;;;;12.32;5.85;;;;;;;;;;5032597;27;98844;-71
2023/06/23 08:08:15;;;;;;;8.82;5.50;;;;;;;;;;5032481;28;99638;-71
2023/06/23 08:10:41;;;;;;;11.27;5.10;;;;;;;;;;5032617;28;98892;-71
2023/06/23 08:13:09;;;;;;;7.28;4.63;;;;;;;;;;5036010;27;98620;-72
2023/06/23 08:15:36;;;;;;;9.60;4.63;;;;;;;;;;5014772;28;100594;-72
2023/06/23 08:18:02;;;;;;;7.72;5.15;;;;;;;;;;5031982;28;99274;-72
2023/06/23 08:20:29;;;;;;;8.65;5.80;;;;;;;;;;5032410;27;100292;-73
2023/06/23 08:22:55;;;;;;;8.07;5.40;;;;;;;;;;5014243;28;99531;-73
2023/06/23 08:25:21;;;;;;;9.70;5.28;;;;;;;;;;5032201;28;98511;-73
2023/06/23 08:27:48;;;;;;;7.93;4.60;;;;;;;;;;5032402;28;99148;-73
2023/06/23 08:30:15;;;;;;;5.05;3.60;;;;;;;;;;5031661;28;99457;-74
2023/06/23 08:32:41;;;;;;;6.25;4.40;;;;;;;;;;5032391;27;98815;-74
2023/06/23 08:35:08;;;;;;;4.43;3.80;;;;;;;;;;5035583;28;99234;-74
2023/06/23 08:37:38;;;;;;;6.85;3.72;;;;;;;;;;5032981;28;98538;-74
2023/06/23 08:40:04;;;;;;;8.18;3.50;;;;;;;;;;5032270;27;99623;-74
2023/06/23 08:42:31;;;;;;;6.45;3.92;;;;;;;;;;5031880;27;99878;-73
2023/06/23 08:44:58;;;;;;;9.05;4.18;;;;;;;;;;5031958;27;98473;-74
2023/06/23 08:47:27;;;;;;;4.22;3.83;;;;;;;;;;5013712;28;99312;-74
2023/06/23 08:49:54;;;;;;;6.18;3.50;;;;;;;;;;5031627;28;99434;-74
2023/06/23 08:52:20;;;;;;;6.95;3.47;;;;;;;;;;5032101;28;98519;-74
2023/06/23 08:54:47;;;;;;;4.70;3.65;;;;;;;;;;5031855;28;99295;-74
2023/06/23 08:57:13;;;;;;;6.78;3.10;;;;;;;;;;5035364;28;100870;-74
2023/06/23 08:59:40;;;;;;;6.57;3.47;;;;;;;;;;5032462;28;99196;-72
2023/06/23 09:02:07;;;;;;;4.57;3.22;;;;;;;;;;5031231;27;99559;-72
2023/06/23 09:04:33;;;;;;;7.85;3.67;;;;;;;;;;5031832;27;98696;-74
2023/06/23 09:07:00;;;;;;;6.50;4.03;;;;;;;;;;5013460;28;99895;-74
2023/06/23 09:09:26;;;;;;;5.43;3.65;;;;;;;;;;5031562;27;100522;-74
2023/06/23 09:11:53;;;;;;;4.72;4.03;;;;;;;;;;5031994;27;98540;-72
2023/06/23 09:14:21;;;;;;;10.45;4.50;;;;;;;;;;5031995;27;102041;-72
2023/06/23 09:16:48;;;;;;;5.95;4.43;;;;;;;;;;5031445;28;100586;-72
2023/06/23 09:19:15;;;;;;;11.05;4.65;;;;;;;;;;5034869;27;98723;-73
2023/06/23 09:21:44;;;;;;;11.82;5.28;;;;;;;;;;5031495;28;99834;-73
2023/06/23 09:24:11;;;;;;;7.15;4.80;;;;;;;;;;5031830;27;97768;-73
2023/06/23 09:26:54;;;;;;;9.93;4.00;;;;;;;;;;5031804;28;98491;-73
2023/06/23 09:29:21;;;;;;;4.70;3.78;;;;;;;;;;5029800;27;100547;-73
2023/06/23 09:31:48;;;;;;;6.57;3.65;;;;;;;;;;5030925;27;99276;-73
2023/06/23 09:34:21;;;;;;;7.57;3.90;;;;;;;;;;5031824;28;99637;-73
2023/06/23 09:36:48;;;;;;;12.23;4.35;;;;;;;;;;5030988;28;99538;-73
2023/06/23 09:39:14;;;;;;;6.50;3.80;;;;;;;;;;5031370;28;98463;-73
2023/06/23 09:41:46;;;;;;;7.25;4.45;;;;;;;;;;5034368;28;100250;-73
2023/06/23 09:44:18;;;;;;;9.05;4.47;;;;;;;;;;5030893;27;98987;-73
2023/06/23 09:46:44;;;;;;;12.85;4.28;;;;;;;;;;5031673;28;100246;-73
2023/06/23 09:49:11;;;;;;;11.57;4.85;;;;;;;;;;5031233;28;98865;-73
2023/06/23 09:51:37;;;;;;;7.10;4.90;;;;;;;;;;5031033;28;99330;-73
2023/06/23 09:54:04;;;;;;;6.70;4.30;;;;;;;;;;5030862;27;99326;-74
2023/06/23 09:56:30;;;;;;;5.43;4.03;;;;;;;;;;5029831;27;100263;-73
2023/06/23 09:58:57;;;;;;;15.77;4.32;;;;;;;;;;5030070;27;98549;-73
2023/06/23 10:01:23;;;;;;;5.53;4.22;;;;;;;;;;5030783;28;99386;-73
2023/06/23 10:03:51;;;;;;;7.00;4.50;;;;;;;;;;5033924;27;99605;-73
2023/06/23 10:06:34;;;;;;;6.68;4.53;;;;;;;;;;5030892;28;99240;-73
2023/06/23 10:09:03;;;;;;;7.57;3.90;;;;;;;;;;5031091;27;99245;-73
2023/06/23 10:11:34;;;;;;;12.45;3.92;;;;;;;;;;5030829;28;98624;-73
2023/06/23 10:14:05;;;;;;;10.25;2.83;;;;;;;;;;5031813;28;98990;-73
2023/06/23 10:16:32;;;;;;;5.60;3.92;;;;;;;;;;5030206;28;99632;-74
2023/06/23 10:18:58;;;;;;;6.30;4.35;;;;;;;;;;5030893;27;98540;-73
2023/06/23 10:21:25;;;;;;;5.90;4.18;;;;;;;;;;5030822;28;100472;-73
2023/06/23 10:23:54;;;;;;;9.38;4.00;;;;;;;;;;5033375;28;99478;-74
2023/06/23 10:26:20;;;;;;;5.20;3.92;;;;;;;;;;5030545;28;99297;-73
2023/06/23 10:28:48;;;;;;;5.93;3.63;;;;;;;;;;5029975;28;99415;-73
2023/06/23 10:31:16;;;;;;;5.00;3.58;;;;;;;;;;5030744;28;98555;-74
2023/06/23 10:33:43;;;;;;;8.88;3.85;;;;;;;;;;5030127;28;99474;-73
2023/06/23 10:36:12;;;;;;;5.65;2.83;;;;;;;;;;5029914;28;98832;-73
2023/06/23 10:38:42;;;;;;;5.87;2.70;;;;;;;;;;5031075;28;97864;-74
2023/06/23 10:41:10;;;;;;;5.32;3.00;;;;;;;;;;5030419;28;98584;-73
2023/06/23 10:43:39;;;;;;;3.42;2.88;;;;;;;;;;5012144;28;99882;-74
2023/06/23 10:46:07;;;;;;;5.53;3.20;;;;;;;;;;5033085;27;99434;-74
2023/06/23 10:48:34;;;;;;;3.80;2.63;;;;;;;;;;5012195;28;99663;-73
2023/06/23 10:51:01;;;;;;;11.27;2.03;;;;;;;;;;5030224;28;98626;-74
2023/06/23 10:53:32;;;;;;;3.53;1.90;;;;;;;;;;5030221;27;99244;-74
2023/06/23 10:55:59;;;;;;;9.10;2.05;;;;;;;;;;5028626;28;99832;-74
2023/06/23 10:58:50;;;;;;;4.03;2.00;;;;;;;;;;5029800;27;98561;-75
2023/06/23 11:01:16;;;;;;;3.50;1.90;;;;;;;;;;5030086;27;99492;-75
2023/06/23 11:03:43;;;;;;;4.18;2.35;;;;;;;;;;5030231;28;98646;-74
2023/06/23 11:06:10;;;;;;;4.32;2.13;;;;;;;;;;5029932;27;98622;-74
2023/06/23 11:08:40;;;;;;;3.35;2.58;;;;;;;;;;5025429;28;101939;-74
2023/06/23 11:11:07;;;;;;;4.55;2.50;;;;;;;;;;5009189;28;99341;-74
2023/06/23 11:13:43;;;;;;;10.13;2.50;;;;;;;;;;5009828;28;100241;-74
2023/06/23 11:16:26;;;;;;;3.42;2.17;;;;;;;;;;5011630;28;100883;-74
2023/06/23 11:18:54;;;;;;;6.25;2.53;;;;;;;;;;5029978;28;98548;-74
2023/06/23 11:21:25;;;;;;;3.80;2.13;;;;;;;;;;5029617;28;99175;-74
2023/06/23 11:24:09;;;;;;;4.67;2.40;;;;;;;;;;5029168;27;99782;-74
2023/06/23 11:26:36;;;;;;;8.50;2.58;;;;;;;;;;5029860;28;98505;-74
2023/06/23 11:29:08;;;;;;;6.13;2.53;;;;;;;;;;5030083;27;99511;-74
2023/06/23 11:31:34;;;;;;;2.83;2.10;;;;;;;;;;5032601;28;99577;-74
2023/06/23 11:34:02;;;;;;;11.60;2.35;;;;;;;;;;5029388;27;99408;-74
2023/06/23 11:36:29;;;;;;;5.07;2.60;;;;;;;;;;5028893;27;102678;-74
2023/06/23 11:38:57;;;;;;;5.03;2.50;;;;;;;;;;5030109;28;98475;-74
2023/06/23 11:41:27;;;;;;;2.63;2.35;;;;;;;;;;5011857;28;99262;-74
2023/06/23 11:44:00;;;;;;;4.97;2.40;;;;;;;;;;5029162;27;99674;-74
2023/06/23 11:46:27;;;;;;;3.72;2.47;;;;;;;;;;5029230;28;98502;-74
2023/06/23 11:48:53;;;;;;;3.60;2.40;;;;;;;;;;5029598;28;99407;-74
2023/06/23 11:51:21;;;;;;;5.18;2.92;;;;;;;;;;5029046;28;99497;-75
2023/06/23 11:53:51;;;;;;;4.97;2.85;;;;;;;;;;5033122;28;97774;-74
2023/06/23 11:56:18;;;;;;;7.60;2.47;;;;;;;;;;5028880;27;99469;-75
2023/06/23 11:58:49;;;;;;;3.53;2.33;;;;;;;;;;5029159;28;98540;-73
2023/06/23 12:01:16;;;;;;;6.47;2.50;;;;;;;;;;5028489;27;99370;-73
2023/06/23 12:03:46;;;;;;;6.18;2.38;;;;;;;;;;5028704;28;99813;-73
2023/06/23 12:06:14;;;;;;;7.15;2.60;;;;;;;;;;5029086;28;98549;-73
2023/06/23 12:08:40;;;;;;;4.82;2.60;;;;;;;;;;5030009;28;100621;-73
2023/06/23 12:11:08;;;;;;;3.80;2.40;;;;;;;;;;5028731;28;99678;-73
2023/06/23 12:13:37;;;;;;;5.28;2.65;;;;;;;;;;5028978;28;98664;-73
2023/06/23 12:16:06;;;;;;;12.90;2.83;;;;;;;;;;5032193;28;99207;-73
2023/06/23 12:18:42;;;;;;;6.47;2.70;;;;;;;;;;5029885;28;97765;-73
2023/06/23 12:21:08;;;;;;;4.03;2.65;;;;;;;;;;5030990;27;99608;-73
2023/06/23 12:23:36;;;;;;;10.13;2.53;;;;;;;;;;5032122;28;99346;-73
2023/06/23 12:26:03;;;;;;;6.60;2.20;;;;;;;;;;5031992;28;100020;-73
2023/06/23 12:28:30;;;;;;;5.57;2.13;;;;;;;;;;5031867;27;100075;-73
2023/06/23 12:30:56;;;;;;;5.65;2.40;;;;;;;;;;5014025;28;99874;-73
2023/06/23 12:33:23;;;;;;;4.43;2.30;;;;;;;;;;5032630;27;98732;-74
2023/06/23 12:36:02;;;;;;;7.47;2.58;;;;;;;;;;5035347;28;99319;-73
2023/06/23 12:38:29;;;;;;;4.03;2.53;;;;;;;;;;5032398;27;98473;-73
2023/06/23 12:41:12;;;;;;;6.18;2.65;;;;;;;;;;5032316;27;98531;-74
2023/06/23 12:43:39;;;;;;;9.13;2.95;;;;;;;;;;5033051;28;98602;-73
2023/06/23 12:46:08;;;;;;;4.63;2.80;;;;;;;;;;5031896;28;98820;-73
2023/06/23 12:48:38;;;;;;;5.63;3.10;;;;;;;;;;5032183;28;99103;-74
2023/06/23 12:51:05;;;;;;;7.88;2.50;;;;;;;;;;5030915;27;100235;-73
2023/06/23 12:53:32;;;;;;;4.22;2.85;;;;;;;;;;5032520;27;98520;-74
2023/06/23 12:55:59;;;;;;;8.18;3.03;;;;;;;;;;5031934;28;99208;-73
2023/06/23 12:58:25;;;;;;;5.22;2.63;;;;;;;;;;5034855;28;99620;-74
2023/06/23 13:00:52;;;;;;;7.10;2.72;;;;;;;;;;5032211;28;100711;-73
2023/06/23 13:03:18;;;;;;;6.32;2.55;;;;;;;;;;5031481;28;99667;-74
2023/06/23 13:05:46;;;;;;;10.63;2.72;;;;;;;;;;5031400;28;98526;-74
2023/06/23 13:08:15;;;;;;;6.38;2.65;;;;;;;;;;5032085;27;99288;-74
2023/06/23 13:10:42;;;;;;;3.93;2.63;;;;;;;;;;5031299;28;100044;-74
2023/06/23 13:13:08;;;;;;;10.15;2.90;;;;;;;;;;5031860;28;98575;-74
2023/06/23 13:15:35;;;;;;;5.47;3.05;;;;;;;;;;5031695;28;100249;-74
2023/06/23 13:18:03;;;;;;;4.82;3.03;;;;;;;;;;5031001;28;99531;-74
2023/06/23 13:20:30;;;;;;;4.60;2.70;;;;;;;;;;5034948;27;98623;-74
2023/06/23 13:22:57;;;;;;;4.55;2.90;;;;;;;;;;5031147;28;99530;-74
2023/06/23 13:25:23;;;;;;;2.85;2.65;;;;;;;;;;5031620;28;98905;-74
2023/06/23 13:27:49;;;;;;;6.10;3.17;;;;;;;;;;5030918;28;99210;-73
2023/06/23 13:30:16;;;;;;;8.52;2.45;;;;;;;;;;5031009;28;99436;-75
2023/06/23 13:32:42;;;;;;;5.82;2.97;;;;;;;;;;5030339;27;97830;-74
2023/06/23 13:35:09;;;;;;;7.95;3.13;;;;;;;;;;5031653;27;98842;-74
2023/06/23 13:37:37;;;;;;;3.95;2.70;;;;;;;;;;5031337;27;99363;-74
2023/06/23 13:40:05;;;;;;;6.07;2.60;;;;;;;;;;5013155;28;99312;-75
2023/06/23 13:42:32;;;;;;;4.80;3.05;;;;;;;;;;5034102;28;100228;-75
2023/06/23 13:44:58;;;;;;;8.88;3.20;;;;;;;;;;5031143;28;98558;-74
2023/06/23 13:47:24;;;;;;;5.40;2.92;;;;;;;;;;5031313;28;100617;-74
2023/06/23 13:49:52;;;;;;;7.10;3.00;;;;;;;;;;5030975;28;99783;-74
2023/06/23 13:52:18;;;;;;;6.15;3.10;;;;;;;;;;5031166;28;98543;-74
2023/06/23 13:54:44;;;;;;;4.05;2.78;;;;;;;;;;5031411;28;99180;-74
2023/06/23 13:57:11;;;;;;;4.93;3.05;;;;;;;;;;5031284;28;99129;-74
2023/06/23 13:59:37;;;;;;;4.60;2.90;;;;;;;;;;5031058;28;98569;-74
2023/06/23 14:02:04;;;;;;;3.25;2.60;;;;;;;;;;5030887;28;99197;-74
2023/06/23 14:04:30;;;;;;;5.53;2.75;;;;;;;;;;5033269;28;100547;-74
2023/06/23 14:06:57;;;;;;;5.55;3.00;;;;;;;;;;5030759;28;99979;-74
2023/06/23 14:09:23;;;;;;;6.80;2.70;;;;;;;;;;5030556;28;99759;-74
2023/06/23 14:11:49;;;;;;;4.65;2.67;;;;;;;;;;5031365;27;98685;-74
2023/06/23 14:14:16;;;;;;;4.55;2.50;;;;;;;;;;5030388;28;99244;-74
2023/06/23 14:16:43;;;;;;;5.05;2.95;;;;;;;;;;5030568;28;99504;-74
2023/06/23 14:19:10;;;;;;;3.47;2.67;;;;;;;;;;5029459;28;98645;-74
2023/06/23 14:21:36;;;;;;;3.53;2.83;;;;;;;;;;5031228;28;99321;-74
2023/06/23 14:24:02;;;;;;;7.25;2.40;;;;;;;;;;5030142;27;100211;-74
2023/06/23 14:26:29;;;;;;;7.60;2.80;;;;;;;;;;5033940;28;98526;-74
2023/06/23 14:28:55;;;;;;;2.67;2.33;;;;;;;;;;5029269;28;100315;-74
2023/06/23 14:31:22;;;;;;;6.93;2.17;;;;;;;;;;5030279;28;98653;-74
2023/06/23 14:33:48;;;;;;;3.30;2.28;;;;;;;;;;5030590;28;99124;-74